Time;durP1;ratioP1;P1;durP2;ratioP2;P2;SDS_P1;SDS_P2;PMS_P1;PMS_P2;Temp;Humidity;BMP_temperature;BMP_pressure;BME280_temperature;BME280_humidity;BME280_pressure;Samples;Min_cycle;Max_cycle;Signal;HPM_P1;HPM_P2
2023/12/10 00:00:03;;;;;;;9.85;3.75;;;;;;;3.94;100.00;100214.81;5069773;28;20037;-72
2023/12/10 00:02:29;;;;;;;11.82;4.38;;;;;;;3.90;100.00;100210.78;5066719;28;20056;-72
2023/12/10 00:04:54;;;;;;;8.45;4.00;;;;;;;3.94;100.00;100215.63;5071556;28;20056;-72
2023/12/10 00:07:19;;;;;;;8.35;3.15;;;;;;;3.96;100.00;100210.34;5068174;28;20112;-72
2023/12/10 00:09:45;;;;;;;8.40;3.83;;;;;;;3.93;100.00;100205.41;5071355;28;20040;-72
2023/12/10 00:12:10;;;;;;;10.43;4.45;;;;;;;3.90;100.00;100206.47;5072301;28;20024;-72
2023/12/10 00:14:36;;;;;;;10.00;3.58;;;;;;;3.90;100.00;100203.06;5068480;28;20063;-72
2023/12/10 00:17:01;;;;;;;5.95;3.38;;;;;;;3.86;100.00;100209.34;5067099;28;20017;-72
2023/12/10 00:19:27;;;;;;;9.88;4.53;;;;;;;3.80;100.00;100220.09;5066587;28;20028;-72
2023/12/10 00:21:53;;;;;;;11.95;4.95;;;;;;;3.74;100.00;100230.84;5070012;28;20261;-72
2023/12/10 00:24:18;;;;;;;11.30;4.60;;;;;;;3.72;100.00;100225.81;5070540;28;20130;-72
2023/12/10 00:26:45;;;;;;;9.05;4.30;;;;;;;3.63;100.00;100232.41;5070041;28;20462;-72
2023/12/10 00:29:10;;;;;;;10.77;4.47;;;;;;;3.53;100.00;100233.16;5069139;28;20058;-72
2023/12/10 00:31:36;;;;;;;8.40;3.70;;;;;;;3.39;100.00;100230.69;5067008;28;20556;-72
2023/12/10 00:34:01;;;;;;;7.90;3.60;;;;;;;3.31;100.00;100229.44;5071511;28;20051;-73
2023/12/10 00:36:27;;;;;;;10.18;3.50;;;;;;;3.31;100.00;100231.19;5072446;28;20024;-73
2023/12/10 00:38:55;;;;;;;9.77;4.45;;;;;;;3.30;100.00;100239.88;5065698;28;20036;-73
2023/12/10 00:41:21;;;;;;;10.48;3.90;;;;;;;3.31;100.00;100233.78;5066077;28;20036;-74
2023/12/10 00:43:47;;;;;;;9.35;3.67;;;;;;;3.30;100.00;100239.88;5070619;28;20524;-73
2023/12/10 00:46:12;;;;;;;8.38;4.80;;;;;;;3.30;100.00;100251.00;5068126;28;20258;-74
2023/12/10 00:48:38;;;;;;;11.68;4.57;;;;;;;3.32;100.00;100248.28;5072144;28;20072;-74
2023/12/10 00:51:04;;;;;;;11.13;4.80;;;;;;;3.28;100.00;100241.72;5068834;28;20036;-74
2023/12/10 00:53:29;;;;;;;12.73;4.55;;;;;;;3.26;100.00;100257.28;5068985;28;20067;-74
2023/12/10 00:55:54;;;;;;;11.88;4.30;;;;;;;3.25;100.00;100259.97;5070242;28;20032;-74
2023/12/10 00:58:20;;;;;;;13.02;5.10;;;;;;;3.24;100.00;100260.88;5067503;28;20058;-74
2023/12/10 01:00:45;;;;;;;13.23;5.22;;;;;;;3.15;100.00;100266.66;5070767;28;20032;-74
2023/12/10 01:03:11;;;;;;;12.93;4.22;;;;;;;3.11;100.00;100275.50;5067933;28;20106;-74
2023/12/10 01:05:37;;;;;;;10.85;4.07;;;;;;;3.08;100.00;100261.06;5070289;28;20033;-74
2023/12/10 01:08:03;;;;;;;7.82;4.38;;;;;;;3.07;100.00;100266.31;5067453;28;20036;-74
2023/12/10 01:10:29;;;;;;;7.72;4.05;;;;;;;3.07;100.00;100263.75;5061388;28;20103;-74
2023/12/10 01:12:56;;;;;;;10.80;5.18;;;;;;;3.08;100.00;100270.53;5068849;28;20036;-74
2023/12/10 01:15:29;;;;;;;11.38;5.10;;;;;;;3.08;100.00;100265.41;5067525;28;20081;-73
2023/12/10 01:18:01;;;;;;;13.60;4.82;;;;;;;3.11;100.00;100270.34;5065843;28;20036;-74
2023/12/10 01:20:31;;;;;;;11.43;5.03;;;;;;;3.10;100.00;100279.00;5067879;28;20148;-74
2023/12/10 01:22:58;;;;;;;9.45;4.20;;;;;;;3.08;100.00;100281.66;5091569;27;20029;-74
2023/12/10 01:25:25;;;;;;;13.38;5.07;;;;;;;3.10;100.00;100290.13;5067256;28;20028;-74
2023/12/10 01:27:54;;;;;;;12.27;4.18;;;;;;;3.14;100.00;100293.31;5068850;28;20049;-74
2023/12/10 01:30:23;;;;;;;10.82;4.85;;;;;;;3.14;100.00;100285.59;5067054;28;20507;-74
2023/12/10 01:32:53;;;;;;;11.52;3.70;;;;;;;3.17;100.00;100285.41;5068538;28;20041;-74
2023/12/10 01:35:18;;;;;;;16.25;5.35;;;;;;;3.20;100.00;100280.03;5067254;28;20032;-74
2023/12/10 01:37:44;;;;;;;10.27;4.28;;;;;;;3.22;100.00;100283.34;5068271;28;20053;-74
2023/12/10 01:40:10;;;;;;;8.43;4.07;;;;;;;3.24;100.00;100276.34;5067479;28;20573;-74
2023/12/10 01:42:35;;;;;;;10.18;4.88;;;;;;;3.22;100.00;100281.59;5067893;28;20420;-73
2023/12/10 01:45:04;;;;;;;9.55;4.40;;;;;;;3.24;100.00;100281.50;5068022;28;20041;-73
2023/12/10 01:47:34;;;;;;;8.52;4.28;;;;;;;3.26;100.00;100279.63;5067192;28;20036;-73
2023/12/10 01:50:02;;;;;;;11.20;4.25;;;;;;;3.31;100.00;100283.53;5069569;28;20393;-73
2023/12/10 01:52:29;;;;;;;8.70;4.43;;;;;;;3.34;100.00;100283.31;5068521;28;20028;-73
2023/12/10 01:54:54;;;;;;;9.60;4.10;;;;;;;3.35;100.00;100284.16;5072342;28;20032;-73
2023/12/10 01:57:20;;;;;;;8.48;3.90;;;;;;;3.36;100.00;100288.38;5070489;28;20044;-73
2023/12/10 01:59:46;;;;;;;11.60;4.28;;;;;;;3.43;100.00;100288.78;5067033;28;20036;-72
2023/12/10 02:02:12;;;;;;;7.47;3.47;;;;;;;3.47;100.00;100288.47;5069160;28;20051;-72
2023/12/10 02:04:39;;;;;;;11.00;4.10;;;;;;;3.52;100.00;100294.16;5065994;28;20115;-73
2023/12/10 02:07:05;;;;;;;10.77;4.55;;;;;;;3.54;100.00;100292.28;5069845;28;20033;-73
2023/12/10 02:09:30;;;;;;;11.20;3.65;;;;;;;3.55;100.00;100288.78;5066428;28;20039;-73
2023/12/10 02:11:56;;;;;;;8.48;2.88;;;;;;;3.59;100.00;100287.66;5067658;28;20044;-73
2023/12/10 02:14:22;;;;;;;12.23;3.65;;;;;;;3.60;100.00;100286.72;5066168;28;20029;-73
2023/12/10 02:16:48;;;;;;;8.07;3.42;;;;;;;3.61;100.00;100290.94;5073408;28;20053;-73
2023/12/10 02:19:13;;;;;;;6.38;3.28;;;;;;;3.50;100.00;100287.44;5076682;28;20029;-73
2023/12/10 02:21:44;;;;;;;10.00;3.80;;;;;;;3.40;100.00;100289.00;5070694;28;20362;-73
2023/12/10 02:24:11;;;;;;;13.93;4.00;;;;;;;3.31;100.00;100287.84;5072318;28;20146;-73
2023/12/10 02:26:37;;;;;;;8.75;3.97;;;;;;;3.26;100.00;100287.34;5065992;28;20394;-73
2023/12/10 02:29:03;;;;;;;10.18;4.30;;;;;;;3.20;100.00;100282.63;5067752;28;20037;-74
2023/12/10 02:31:29;;;;;;;5.78;2.90;;;;;;;3.19;100.00;100283.53;5071549;28;20033;-74
2023/12/10 02:33:55;;;;;;;7.00;3.75;;;;;;;3.20;100.00;100290.34;5067200;28;20036;-73
2023/12/10 02:36:21;;;;;;;9.38;3.85;;;;;;;3.21;100.00;100292.00;5068187;28;20385;-73
2023/12/10 02:38:48;;;;;;;12.32;4.38;;;;;;;3.21;100.00;100276.53;5066285;28;20692;-73
2023/12/10 02:41:13;;;;;;;13.75;5.35;;;;;;;3.20;100.00;100278.28;5065869;28;20426;-73
2023/12/10 02:43:39;;;;;;;12.73;4.75;;;;;;;3.20;100.00;100272.31;5062083;28;20043;-73
2023/12/10 02:46:04;;;;;;;6.75;3.20;;;;;;;3.20;100.00;100274.88;5070838;28;20021;-73
2023/12/10 02:48:30;;;;;;;9.18;3.83;;;;;;;3.20;100.00;100274.88;5068059;28;20039;-73
2023/12/10 02:50:55;;;;;;;8.57;3.15;;;;;;;3.20;100.00;100274.88;5069640;28;20056;-73
2023/12/10 02:53:21;;;;;;;8.75;3.00;;;;;;;3.18;100.00;100267.28;5068579;28;20078;-73
2023/12/10 02:55:46;;;;;;;9.57;3.17;;;;;;;3.14;100.00;100260.69;5068128;28;20036;-73
2023/12/10 02:58:12;;;;;;;8.55;3.65;;;;;;;3.13;100.00;100250.47;5066628;28;20028;-73
2023/12/10 03:00:38;;;;;;;8.40;3.25;;;;;;;3.11;100.00;100249.75;5069093;28;20035;-73
2023/12/10 03:03:03;;;;;;;8.63;2.50;;;;;;;3.11;100.00;100249.75;5069796;28;20043;-73
2023/12/10 03:05:28;;;;;;;4.68;2.28;;;;;;;3.10;100.00;100242.97;5069017;28;20078;-73
2023/12/10 03:07:54;;;;;;;8.45;2.97;;;;;;;3.07;100.00;100243.16;5069870;28;20515;-73
2023/12/10 03:10:20;;;;;;;6.00;2.75;;;;;;;3.07;100.00;100232.88;5072992;28;20044;-73
2023/12/10 03:12:46;;;;;;;5.20;1.77;;;;;;;3.05;100.00;100227.81;5071125;28;20037;-74
2023/12/10 03:15:12;;;;;;;4.93;1.80;;;;;;;3.05;100.00;100220.09;5070724;28;20503;-73
2023/12/10 03:17:37;;;;;;;4.57;1.50;;;;;;;3.03;100.00;100221.94;5069855;28;20120;-73
2023/12/10 03:20:03;;;;;;;3.78;1.33;;;;;;;3.00;100.00;100212.69;5069059;28;20458;-73
2023/12/10 03:22:29;;;;;;;3.95;1.38;;;;;;;3.03;100.00;100210.81;5068702;28;20034;-73
2023/12/10 03:24:55;;;;;;;3.92;1.38;;;;;;;3.04;100.00;100202.19;5070598;28;20037;-73
2023/12/10 03:27:21;;;;;;;3.40;1.40;;;;;;;3.04;100.00;100197.03;5072274;28;20040;-73
2023/12/10 03:29:47;;;;;;;6.43;1.73;;;;;;;3.05;100.00;100193.53;5069806;28;20402;-73
2023/12/10 03:32:12;;;;;;;3.03;1.40;;;;;;;3.05;100.00;100193.53;5073775;28;20040;-72
2023/12/10 03:34:38;;;;;;;4.43;1.13;;;;;;;3.05;100.00;100185.81;5069500;28;20033;-73
2023/12/10 03:37:03;;;;;;;4.00;1.17;;;;;;;3.05;100.00;100189.22;5072448;28;20035;-73
2023/12/10 03:39:28;;;;;;;1.80;0.70;;;;;;;3.05;100.00;100183.25;5065845;28;21153;-73
2023/12/10 03:41:54;;;;;;;3.28;1.10;;;;;;;3.06;100.00;100184.88;5068159;28;20032;-73
2023/12/10 03:44:19;;;;;;;3.67;0.98;;;;;;;3.11;100.00;100191.38;5067817;28;20101;-73
2023/12/10 03:46:45;;;;;;;1.50;0.77;;;;;;;3.13;100.00;100176.66;5073077;28;20028;-73
2023/12/10 03:49:10;;;;;;;4.00;1.63;;;;;;;3.13;100.00;100175.81;5070578;28;20043;-74
2023/12/10 03:51:36;;;;;;;3.70;1.20;;;;;;;3.13;100.00;100184.38;5069735;28;20489;-74
2023/12/10 03:54:01;;;;;;;2.50;0.80;;;;;;;3.15;100.00;100174.78;5070920;28;20082;-73
2023/12/10 03:56:27;;;;;;;3.63;1.30;;;;;;;3.17;100.00;100175.50;5068034;28;20032;-74
2023/12/10 03:58:52;;;;;;;5.00;1.23;;;;;;;3.14;100.00;100162.84;5074519;28;20032;-74
2023/12/10 04:01:18;;;;;;;2.80;1.30;;;;;;;3.15;100.00;100168.81;5070807;28;20032;-74
2023/12/10 04:03:44;;;;;;;3.70;1.35;;;;;;;3.15;100.00;100167.06;5069048;28;20033;-74
2023/12/10 04:06:09;;;;;;;5.90;1.23;;;;;;;3.17;100.00;100172.94;5070659;28;20168;-74
2023/12/10 04:08:35;;;;;;;2.58;1.00;;;;;;;3.19;100.00;100172.84;5068691;28;20460;-73
2023/12/10 04:11:00;;;;;;;2.60;0.90;;;;;;;3.21;100.00;100181.28;5070408;28;20042;-74
2023/12/10 04:13:26;;;;;;;2.15;0.90;;;;;;;3.20;100.00;100174.47;5070814;28;20051;-74
2023/12/10 04:15:51;;;;;;;2.33;0.88;;;;;;;3.19;100.00;100170.25;5067165;28;20029;-74
2023/12/10 04:18:17;;;;;;;4.18;0.95;;;;;;;3.19;100.00;100172.84;5069608;28;20052;-74
2023/12/10 04:20:43;;;;;;;2.85;0.95;;;;;;;3.20;100.00;100166.75;5069803;28;20539;-73
2023/12/10 04:23:08;;;;;;;4.18;1.40;;;;;;;3.20;100.00;100156.47;5068556;28;20052;-74
2023/12/10 04:25:34;;;;;;;3.47;1.20;;;;;;;3.19;100.00;100158.22;5069964;28;20056;-74
2023/12/10 04:27:59;;;;;;;3.20;1.42;;;;;;;3.21;100.00;100165.84;5067538;28;20032;-73
2023/12/10 04:30:26;;;;;;;4.30;1.27;;;;;;;3.22;100.00;100155.44;5070420;28;20029;-74
2023/12/10 04:32:52;;;;;;;4.38;1.17;;;;;;;3.24;100.00;100155.31;5067808;28;20036;-73
2023/12/10 04:35:18;;;;;;;2.53;1.00;;;;;;;3.26;100.00;100156.88;5067821;28;20114;-73
2023/12/10 04:37:43;;;;;;;2.97;1.25;;;;;;;3.30;100.00;100158.31;5069570;28;20071;-74
2023/12/10 04:40:10;;;;;;;2.65;1.23;;;;;;;3.35;100.00;100160.53;5069907;28;20125;-74
2023/12/10 04:42:39;;;;;;;3.75;1.58;;;;;;;3.40;100.00;100152.50;5067260;28;20040;-73
2023/12/10 04:45:08;;;;;;;2.15;1.02;;;;;;;3.40;100.00;100158.47;5071314;28;20032;-73
2023/12/10 04:47:37;;;;;;;2.15;0.85;;;;;;;3.42;100.00;100153.22;5066978;28;20071;-74
2023/12/10 04:50:03;;;;;;;4.10;1.55;;;;;;;3.44;100.00;100157.31;5068637;28;20028;-74
2023/12/10 04:52:32;;;;;;;2.05;1.20;;;;;;;3.43;100.00;100149.72;5069494;28;20123;-74
2023/12/10 04:54:58;;;;;;;3.05;1.40;;;;;;;3.46;100.00;100158.03;5068256;28;20028;-73
2023/12/10 04:57:25;;;;;;;2.85;0.85;;;;;;;3.44;100.00;100162.47;5068527;28;20037;-74
2023/12/10 04:59:51;;;;;;;6.30;1.42;;;;;;;3.45;100.00;100165.88;5068408;28;20489;-73
2023/12/10 05:02:16;;;;;;;4.75;1.60;;;;;;;3.46;100.00;100162.38;5066954;28;20028;-73
2023/12/10 05:04:41;;;;;;;4.60;1.50;;;;;;;3.46;100.00;100158.03;5068358;28;20036;-74
2023/12/10 05:07:07;;;;;;;5.03;1.95;;;;;;;3.43;100.00;100158.25;5067308;28;20150;-74
2023/12/10 05:09:33;;;;;;;5.45;2.20;;;;;;;3.43;100.00;100163.41;5068394;28;20041;-74
2023/12/10 05:11:59;;;;;;;5.75;2.28;;;;;;;3.43;100.00;100171.13;5067805;28;20032;-74
2023/12/10 05:14:25;;;;;;;4.90;1.70;;;;;;;3.45;100.00;100171.84;5070953;28;20040;-74
2023/12/10 05:16:50;;;;;;;3.38;2.00;;;;;;;3.46;100.00;100173.50;5069233;28;20028;-73
2023/12/10 05:19:15;;;;;;;3.83;1.50;;;;;;;3.49;100.00;100193.91;5069621;28;20501;-73
2023/12/10 05:21:41;;;;;;;4.35;2.17;;;;;;;3.53;100.00;100187.59;5069285;28;20050;-73
2023/12/10 05:24:06;;;;;;;5.75;2.85;;;;;;;3.56;100.00;100189.16;5068936;28;20043;-74
2023/12/10 05:26:32;;;;;;;4.72;2.03;;;;;;;3.60;100.00;100198.31;5068391;28;20032;-73
2023/12/10 05:28:57;;;;;;;5.32;2.53;;;;;;;3.61;100.00;100200.78;5074230;28;20489;-73
2023/12/10 05:31:23;;;;;;;2.88;1.63;;;;;;;3.58;100.00;100203.56;5066400;28;20032;-74
2023/12/10 05:33:48;;;;;;;5.95;2.75;;;;;;;3.57;100.00;100201.91;5064689;28;20044;-73
2023/12/10 05:36:15;;;;;;;6.68;2.88;;;;;;;3.59;100.00;100202.63;5069127;28;20025;-73
2023/12/10 05:38:40;;;;;;;7.70;3.63;;;;;;;3.63;100.00;100210.97;5068150;28;20028;-73
2023/12/10 05:41:06;;;;;;;9.38;3.85;;;;;;;3.68;100.00;100208.91;5067341;28;20539;-73
2023/12/10 05:43:31;;;;;;;7.68;3.25;;;;;;;3.71;100.00;100223.34;5062782;28;20036;-73
2023/12/10 05:45:57;;;;;;;8.00;3.97;;;;;;;3.72;100.00;100214.69;5066460;28;20572;-73
2023/12/10 05:48:22;;;;;;;8.93;2.95;;;;;;;3.73;100.00;100226.63;5066679;28;20035;-73
2023/12/10 05:50:47;;;;;;;9.50;3.97;;;;;;;3.73;100.00;100237.75;5069411;28;20031;-73
2023/12/10 05:53:13;;;;;;;4.22;2.60;;;;;;;3.74;100.00;100243.75;5071871;28;20078;-73
2023/12/10 05:55:38;;;;;;;8.60;3.78;;;;;;;3.73;100.00;100242.91;5070385;28;20469;-73
2023/12/10 05:58:05;;;;;;;4.32;2.47;;;;;;;3.67;100.00;100251.06;5100353;28;20473;-73
2023/12/10 06:00:30;;;;;;;4.78;2.00;;;;;;;3.64;100.00;100264.97;5065015;28;20130;-73
2023/12/10 06:02:56;;;;;;;5.78;2.63;;;;;;;3.61;100.00;100265.19;5066138;28;20040;-73
2023/12/10 06:05:21;;;;;;;5.75;2.85;;;;;;;3.61;100.00;100251.47;5064681;28;20123;-73
2023/12/10 06:07:47;;;;;;;7.95;2.65;;;;;;;3.59;100.00;100259.31;5070214;28;20037;-73
2023/12/10 06:10:12;;;;;;;5.75;2.70;;;;;;;3.59;100.00;100261.06;5065297;28;20029;-73
2023/12/10 06:12:38;;;;;;;5.28;1.98;;;;;;;3.55;100.00;100262.19;5067271;28;20039;-73
2023/12/10 06:15:04;;;;;;;5.93;2.10;;;;;;;3.51;100.00;100271.06;5069124;28;20397;-73
2023/12/10 06:17:30;;;;;;;4.40;2.20;;;;;;;3.48;100.00;100279.00;5066522;28;20075;-73
2023/12/10 06:19:55;;;;;;;5.57;2.15;;;;;;;3.47;100.00;100282.50;5067106;28;20441;-73
2023/12/10 06:22:21;;;;;;;5.28;2.35;;;;;;;3.46;100.00;100278.28;5067661;28;20044;-72
2023/12/10 06:24:46;;;;;;;4.18;2.33;;;;;;;3.46;100.00;100283.44;5066727;28;20112;-73
2023/12/10 06:27:12;;;;;;;5.60;1.92;;;;;;;3.46;100.00;100297.13;5070076;28;20424;-73
2023/12/10 06:29:39;;;;;;;4.93;2.33;;;;;;;3.46;100.00;100297.13;5072123;28;20028;-73
2023/12/10 06:32:05;;;;;;;5.78;2.00;;;;;;;3.48;100.00;100305.59;5069192;28;20040;-73
2023/12/10 06:34:30;;;;;;;5.85;2.47;;;;;;;3.51;100.00;100315.69;5070304;28;20048;-73
2023/12/10 06:36:56;;;;;;;8.18;3.33;;;;;;;3.52;100.00;100326.81;5067720;28;20032;-73
2023/12/10 06:39:21;;;;;;;3.45;1.58;;;;;;;3.51;100.00;100328.56;5069670;28;20085;-73
2023/12/10 06:41:47;;;;;;;5.60;2.20;;;;;;;3.49;100.00;100327.84;5069887;28;20131;-73
2023/12/10 06:44:15;;;;;;;9.35;2.97;;;;;;;3.50;100.00;100329.47;5071025;28;20058;-73
2023/12/10 06:46:41;;;;;;;7.38;2.90;;;;;;;3.49;100.00;100329.59;5069688;28;20431;-73
2023/12/10 06:49:06;;;;;;;12.02;2.70;;;;;;;3.48;100.00;100343.41;5070649;28;20040;-73
2023/12/10 06:51:32;;;;;;;4.53;2.25;;;;;;;3.44;100.00;100340.19;5068756;28;20371;-73
2023/12/10 06:53:57;;;;;;;6.97;2.75;;;;;;;3.46;100.00;100345.25;5071293;28;20032;-73
2023/12/10 06:56:23;;;;;;;5.10;2.55;;;;;;;3.48;100.00;100346.78;5074644;28;20021;-73
2023/12/10 06:58:48;;;;;;;6.15;2.38;;;;;;;3.49;100.00;100334.75;5073025;28;20047;-73
2023/12/10 07:01:14;;;;;;;8.93;2.65;;;;;;;3.49;100.00;100327.84;5071345;28;20035;-73
2023/12/10 07:03:39;;;;;;;5.78;2.30;;;;;;;3.49;100.00;100335.56;5067636;28;20406;-73
2023/12/10 07:06:05;;;;;;;4.88;2.20;;;;;;;3.50;100.00;100337.22;5075548;28;20056;-73
2023/12/10 07:08:31;;;;;;;4.75;1.83;;;;;;;3.50;100.00;100333.81;5069753;28;20090;-73
2023/12/10 07:10:57;;;;;;;5.82;1.83;;;;;;;3.51;100.00;100340.63;5072595;28;20033;-73
2023/12/10 07:13:22;;;;;;;5.38;2.08;;;;;;;3.54;100.00;100336.09;5067837;28;20409;-73
2023/12/10 07:15:48;;;;;;;5.20;1.90;;;;;;;3.56;100.00;100349.69;5068939;28;20054;-73
2023/12/10 07:18:14;;;;;;;5.15;2.42;;;;;;;3.57;100.00;100358.25;5068852;28;20138;-73
2023/12/10 07:20:39;;;;;;;5.25;2.10;;;;;;;3.55;100.00;100353.19;5068241;28;20583;-73
2023/12/10 07:23:05;;;;;;;3.95;1.63;;;;;;;3.57;100.00;100356.50;5073002;28;20071;-73
2023/12/10 07:25:30;;;;;;;3.83;1.98;;;;;;;3.59;100.00;100352.06;5069700;28;20082;-73
2023/12/10 07:27:56;;;;;;;5.55;2.50;;;;;;;3.59;100.00;100352.06;5073404;28;20036;-73
2023/12/10 07:30:21;;;;;;;6.75;3.25;;;;;;;3.68;100.00;100366.09;5069613;28;20060;-73
2023/12/10 07:32:48;;;;;;;6.47;3.00;;;;;;;3.69;100.00;100379.78;5071549;28;20041;-72
2023/12/10 07:35:14;;;;;;;5.18;2.50;;;;;;;3.69;100.00;100370.31;5068840;28;20044;-73
2023/12/10 07:37:39;;;;;;;5.55;2.42;;;;;;;3.69;100.00;100384.94;5070428;28;20036;-73
2023/12/10 07:40:06;;;;;;;4.95;2.15;;;;;;;3.65;100.00;100392.06;5066632;28;20028;-73
2023/12/10 07:42:31;;;;;;;4.18;1.73;;;;;;;3.61;100.00;100382.88;5067093;28;20388;-73
2023/12/10 07:44:57;;;;;;;6.38;2.75;;;;;;;3.60;100.00;100387.19;5068936;28;20031;-73
2023/12/10 07:47:22;;;;;;;6.50;2.85;;;;;;;3.60;100.00;100400.09;5066393;28;20401;-73
2023/12/10 07:49:48;;;;;;;7.80;2.92;;;;;;;3.60;100.00;100405.25;5069266;28;20397;-73
2023/12/10 07:52:13;;;;;;;10.35;2.40;;;;;;;3.60;100.00;100402.66;5066458;28;20497;-73
2023/12/10 07:54:39;;;;;;;9.57;2.88;;;;;;;3.59;100.00;100406.16;5067957;28;20033;-73
2023/12/10 07:57:04;;;;;;;8.48;3.88;;;;;;;3.61;100.00;100421.53;5068191;28;20024;-73
2023/12/10 07:59:30;;;;;;;6.50;2.92;;;;;;;3.59;100.00;100418.22;5069364;28;20041;-73
2023/12/10 08:01:55;;;;;;;9.05;3.20;;;;;;;3.64;100.00;100411.00;5069929;28;20028;-73
2023/12/10 08:04:21;;;;;;;6.03;3.45;;;;;;;3.65;100.00;100403.19;5069723;28;20516;-73
2023/12/10 08:06:46;;;;;;;6.82;2.85;;;;;;;3.69;100.00;100405.56;5072551;28;20024;-73
2023/12/10 08:09:12;;;;;;;6.95;3.20;;;;;;;3.70;100.00;100414.94;5071264;28;20045;-73
2023/12/10 08:11:37;;;;;;;8.23;3.38;;;;;;;3.77;100.00;100418.75;5071024;28;20500;-73
2023/12/10 08:14:03;;;;;;;7.07;2.92;;;;;;;3.76;100.00;100427.41;5071355;28;20051;-73
2023/12/10 08:16:28;;;;;;;6.85;2.63;;;;;;;3.77;100.00;100445.34;5068283;28;20036;-73
2023/12/10 08:18:54;;;;;;;7.45;2.50;;;;;;;3.79;100.00;100451.22;5071439;28;20032;-69
2023/12/10 08:21:19;;;;;;;7.53;3.72;;;;;;;3.81;100.00;100451.09;5073055;28;20028;-73
2023/12/10 08:23:45;;;;;;;7.57;3.05;;;;;;;3.82;100.00;100434.72;5078073;28;20151;-73
2023/12/10 08:26:10;;;;;;;7.88;2.85;;;;;;;3.85;100.00;100434.50;5098503;28;20036;-73
2023/12/10 08:28:36;;;;;;;6.22;2.90;;;;;;;3.86;100.00;100443.91;5070287;28;20033;-73
2023/12/10 08:31:01;;;;;;;6.47;3.17;;;;;;;3.91;100.00;100444.41;5072100;28;20036;-73
2023/12/10 08:33:27;;;;;;;7.72;2.72;;;;;;;3.98;100.00;100453.41;5072012;28;20051;-74
2023/12/10 08:35:52;;;;;;;6.43;2.75;;;;;;;4.04;100.00;100465.06;5071681;28;20098;-73
2023/12/10 08:38:18;;;;;;;7.13;2.92;;;;;;;4.00;100.00;100456.69;5075684;28;20386;-73
2023/12/10 08:40:43;;;;;;;6.50;3.33;;;;;;;4.04;100.00;100449.59;5070990;28;20436;-73
2023/12/10 08:43:09;;;;;;;6.68;3.15;;;;;;;4.05;100.00;100453.81;5070067;28;20028;-73
2023/12/10 08:45:34;;;;;;;8.43;3.88;;;;;;;4.14;100.00;100456.59;5096839;28;20021;-73
2023/12/10 08:48:00;;;;;;;8.25;2.97;;;;;;;4.22;100.00;100462.06;5071176;28;20043;-73
2023/12/10 08:50:25;;;;;;;9.10;2.90;;;;;;;4.25;100.00;100461.84;5072175;28;20032;-73
2023/12/10 08:52:51;;;;;;;8.73;2.85;;;;;;;4.30;100.00;100464.94;5069101;28;20028;-72
2023/12/10 08:55:17;;;;;;;5.35;2.20;;;;;;;4.39;100.00;100483.28;5069709;28;20071;-73
2023/12/10 08:57:42;;;;;;;8.77;2.28;;;;;;;4.37;100.00;100485.16;5070696;28;20060;-73
2023/12/10 09:00:08;;;;;;;6.30;2.63;;;;;;;4.42;100.00;100501.13;5066580;28;20068;-73
2023/12/10 09:02:34;;;;;;;5.07;2.78;;;;;;;4.43;100.00;100502.78;5067225;28;20089;-73
2023/12/10 09:04:59;;;;;;;4.55;2.22;;;;;;;4.43;100.00;100495.88;5070427;28;20032;-73
2023/12/10 09:07:26;;;;;;;6.45;1.77;;;;;;;4.45;100.00;100503.50;5066331;28;20024;-73
2023/12/10 09:09:51;;;;;;;4.22;1.58;;;;;;;4.52;100.00;100504.75;5068520;28;20075;-73
2023/12/10 09:12:17;;;;;;;6.70;2.28;;;;;;;4.51;100.00;100509.09;5069064;28;20052;-73
2023/12/10 09:14:42;;;;;;;5.65;2.22;;;;;;;4.57;100.00;100515.59;5072087;28;20029;-73
2023/12/10 09:17:08;;;;;;;5.70;2.63;;;;;;;4.63;100.00;100528.06;5093194;28;20066;-73
2023/12/10 09:19:34;;;;;;;5.50;2.05;;;;;;;4.67;100.00;100539.84;5068773;28;20389;-73
2023/12/10 09:21:59;;;;;;;5.88;2.70;;;;;;;4.67;100.00;100539.84;5067413;28;20032;-73
2023/12/10 09:24:25;;;;;;;5.47;2.90;;;;;;;4.66;100.00;100539.00;5066817;28;20036;-73
2023/12/10 09:26:51;;;;;;;7.50;3.00;;;;;;;4.68;100.00;100544.06;5069686;28;20252;-73
2023/12/10 09:29:21;;;;;;;8.25;2.55;;;;;;;4.81;100.00;100541.44;5068997;28;20078;-73
2023/12/10 09:31:47;;;;;;;6.22;2.40;;;;;;;4.81;100.00;100534.53;5068702;28;20035;-73
2023/12/10 09:34:12;;;;;;;8.63;2.70;;;;;;;4.86;100.00;100535.03;5070451;28;20044;-72
2023/12/10 09:36:38;;;;;;;9.38;2.80;;;;;;;4.83;100.00;100540.41;5069535;28;20056;-73
2023/12/10 09:39:04;;;;;;;7.78;2.38;;;;;;;4.87;100.00;100553.94;5070098;28;20511;-73
2023/12/10 09:41:30;;;;;;;7.75;3.10;;;;;;;4.81;100.00;100557.75;5065680;28;20066;-72
2023/12/10 09:43:55;;;;;;;7.07;2.83;;;;;;;4.86;100.00;100560.03;5069190;28;20032;-73
2023/12/10 09:46:22;;;;;;;4.75;2.50;;;;;;;4.92;100.00;100559.59;5067639;28;20027;-73
2023/12/10 09:48:49;;;;;;;6.97;1.88;;;;;;;4.93;100.00;100556.09;5068626;28;20420;-73
2023/12/10 09:51:17;;;;;;;4.82;2.22;;;;;;;4.99;100.00;100553.09;5065728;28;20031;-73
2023/12/10 09:53:43;;;;;;;5.90;3.10;;;;;;;5.03;100.00;100548.53;5065018;28;20020;-73
2023/12/10 09:56:09;;;;;;;3.33;1.38;;;;;;;5.11;100.00;100551.41;5071457;28;20070;-73
2023/12/10 09:58:35;;;;;;;4.82;2.35;;;;;;;5.12;100.00;100553.06;5070160;28;20119;-73
2023/12/10 10:01:05;;;;;;;4.25;1.90;;;;;;;5.20;100.00;100555.94;5075599;28;20123;-73
2023/12/10 10:03:34;;;;;;;5.72;2.17;;;;;;;5.28;100.00;100561.38;5068869;28;20078;-73
2023/12/10 10:06:00;;;;;;;2.70;1.88;;;;;;;5.35;100.00;100562.59;5069946;28;20035;-73
2023/12/10 10:08:28;;;;;;;5.00;2.10;;;;;;;5.39;100.00;100561.44;5067073;28;20473;-73
2023/12/10 10:10:54;;;;;;;3.65;1.67;;;;;;;5.50;100.00;100565.84;5073247;28;20035;-73
2023/12/10 10:13:19;;;;;;;3.67;1.52;;;;;;;5.52;100.00;100569.97;5074520;28;20028;-73
2023/12/10 10:15:45;;;;;;;3.97;1.65;;;;;;;5.59;100.00;100578.13;5072939;28;20024;-73
2023/12/10 10:18:11;;;;;;;5.03;1.40;;;;;;;5.67;100.00;100579.19;5074070;28;20115;-73
2023/12/10 10:20:38;;;;;;;5.75;2.28;;;;;;;5.76;100.00;100563.97;5072501;28;20039;-70
2023/12/10 10:23:04;;;;;;;4.72;1.20;;;;;;;5.77;100.00;100550.09;5075566;28;20085;-70
2023/12/10 10:25:30;;;;;;;3.03;1.52;;;;;;;5.77;100.00;100538.00;5074662;28;20039;-70
2023/12/10 10:27:55;;;;;;;3.20;1.70;;;;;;;5.80;100.00;100544.72;5075264;28;20453;-70
2023/12/10 10:30:22;;;;;;;4.75;2.03;;;;;;;5.90;100.00;100553.47;5073213;28;20035;-73
2023/12/10 10:32:48;;;;;;;4.45;1.52;;;;;;;6.00;100.00;100559.63;5072456;28;20031;-71
2023/12/10 10:35:14;;;;;;;3.70;1.45;;;;;;;6.04;100.00;100561.06;5070217;28;20080;-71
2023/12/10 10:37:42;;;;;;;5.57;1.45;;;;;;;6.03;100.00;100546.47;5071773;28;20039;-72
2023/12/10 10:40:08;;;;;;;4.88;1.50;;;;;;;6.06;100.00;100543.66;5072924;28;20055;-72
2023/12/10 10:42:34;;;;;;;5.75;1.13;;;;;;;6.15;100.00;100530.00;5072747;28;20090;-72
2023/12/10 10:45:00;;;;;;;4.72;1.85;;;;;;;6.14;100.00;100538.75;5070161;28;20028;-72
2023/12/10 10:47:28;;;;;;;4.88;1.50;;;;;;;6.15;100.00;100542.94;5077316;28;20044;-72
2023/12/10 10:49:57;;;;;;;4.93;1.92;;;;;;;6.17;100.00;100546.25;5073131;28;20028;-72
2023/12/10 10:52:29;;;;;;;2.90;1.23;;;;;;;6.11;100.00;100551.09;5106307;27;20040;-72
2023/12/10 10:54:55;;;;;;;4.75;1.70;;;;;;;6.07;100.00;100560.84;5071643;28;20024;-72
2023/12/10 10:57:31;;;;;;;5.13;1.75;;;;;;;6.00;100.00;100559.63;5070185;28;20028;-71
2023/12/10 10:59:59;;;;;;;7.68;1.70;;;;;;;5.90;100.00;100548.31;5070547;28;20055;-71
2023/12/10 11:02:25;;;;;;;2.78;1.45;;;;;;;5.92;100.00;100541.25;5050999;28;20510;-71
2023/12/10 11:04:51;;;;;;;5.53;1.63;;;;;;;5.94;100.00;100536.81;5070614;28;20119;-71
2023/12/10 11:07:21;;;;;;;4.03;1.33;;;;;;;5.96;100.00;100548.69;5077178;28;20050;-70
2023/12/10 11:09:58;;;;;;;6.03;1.83;;;;;;;5.93;100.00;100543.72;5068573;28;20031;-71
2023/12/10 11:12:51;;;;;;;3.72;1.25;;;;;;;5.89;100.00;100537.13;5064462;28;20056;-70
2023/12/10 11:15:16;;;;;;;2.10;1.00;;;;;;;5.83;100.00;100537.56;5064097;28;20493;-70
2023/12/10 11:17:54;;;;;;;3.70;1.00;;;;;;;5.79;100.00;100535.31;5076475;28;20040;-70